»·PEaware :: C-EDGE KBUR-KFUL

C-EDGE :: KBUR-KFUL

FLIGHT INFORMATION

Flight Status: Arrived
Operator: Privately registered:
Canada
More flights under this callsign
Pilot: Scott G. (88)
Aircraft: PIPER PA-44 SEMINOLE
(PA44)
More flights by this aircraft type
Origin: KBUR Bob Hope-Burbank
United States
Destination: KFUL Fullerton Mun
United States
More flights between these airports :: More routes between these airports
Route:
File this flight plan on PilotEdge
Remarks: Cat 9, please
Altitude:
(Current/Filed)
3,000ft
Speed:
(Current/Filed)
150kts
Departed: 01-Feb-17 11:21 AM
Arrived: 01-Feb-17 11:37 AM
Distance/Time
Traveled:
27nm/0:15
Distance/Time
To Go:
Arrived

Flight Plot

Page will automatically refresh every two minutes.


Map Options




Map Legend


Flown Route
Filed Route
Departure Airport
Arrival Airport
Navaid (VOR, NDB)
Fix

Horizontal Profiles

Position Reports

Time Latitude Longitude Heading Altitude Ground
Speed
01-Feb-17 10:43 34.196176 -118.365496 64 718ft 0kts
01-Feb-17 10:44 34.196176 -118.365496 64 718ft 0kts
01-Feb-17 10:45 34.196176 -118.365496 64 718ft 0kts
01-Feb-17 10:46 34.196176 -118.365496 64 718ft 0kts
01-Feb-17 10:47 34.196176 -118.365496 64 718ft 0kts
01-Feb-17 10:48 34.196176 -118.365496 64 718ft 0kts
01-Feb-17 10:49 34.196176 -118.365496 64 718ft 0kts
01-Feb-17 10:50 34.196176 -118.365496 64 718ft 0kts
01-Feb-17 10:51 34.196176 -118.365496 64 718ft 0kts
01-Feb-17 10:52 34.196176 -118.365496 64 718ft 0kts
01-Feb-17 10:53 34.196176 -118.365496 64 718ft 0kts
01-Feb-17 10:54 34.196176 -118.365496 64 718ft 0kts
01-Feb-17 10:55 34.196176 -118.365496 64 718ft 0kts
01-Feb-17 10:56 34.196176 -118.365496 64 718ft 0kts
01-Feb-17 10:57 34.196176 -118.365496 64 718ft 0kts
01-Feb-17 10:58 34.196176 -118.365496 64 718ft 0kts
01-Feb-17 10:59 34.196176 -118.365496 64 718ft 0kts
01-Feb-17 11:00 34.196176 -118.365496 64 718ft 0kts
01-Feb-17 11:01 34.196176 -118.365496 64 718ft 0kts
01-Feb-17 11:02 34.196176 -118.365496 64 718ft 0kts
01-Feb-17 11:03 34.196176 -118.365496 64 718ft 0kts
01-Feb-17 11:04 34.196176 -118.365496 64 718ft 0kts
01-Feb-17 11:05 34.196176 -118.365496 64 718ft 0kts
01-Feb-17 11:06 34.196176 -118.365496 64 718ft 0kts
01-Feb-17 11:07 34.196176 -118.365496 64 718ft 0kts
01-Feb-17 11:08 34.196176 -118.365496 64 718ft 0kts
01-Feb-17 11:09 34.196176 -118.365496 64 718ft 0kts
01-Feb-17 11:10 34.196176 -118.365496 64 718ft 0kts
01-Feb-17 11:11 34.196176 -118.365496 64 718ft 0kts
01-Feb-17 11:12 34.196176 -118.365496 64 718ft 0kts
01-Feb-17 11:13 34.196176 -118.365495 64 718ft 0kts
01-Feb-17 11:14 34.196284 -118.365431 328 718ft 5kts
01-Feb-17 11:15 34.196583 -118.365551 357 719ft 0kts
01-Feb-17 11:16 34.196583 -118.365551 357 719ft 0kts
01-Feb-17 11:17 34.196669 -118.365559 355 719ft 3kts
01-Feb-17 11:18 34.197060 -118.369067 341 723ft 4kts
01-Feb-17 11:19 34.197076 -118.369073 341 723ft 0kts
01-Feb-17 11:20 34.197896 -118.368941 90 724ft 0kts
01-Feb-17 11:21 34.197540 -118.353063 95 1267ft 104kts
01-Feb-17 11:22 34.193990 -118.312937 108 2007ft 122kts
01-Feb-17 11:23 34.181352 -118.275344 115 2451ft 124kts
01-Feb-17 11:24 34.166424 -118.235834 115 2657ft 126kts
01-Feb-17 11:25 34.152165 -118.198458 114 3002ft 130kts
01-Feb-17 11:26 34.136304 -118.156872 113 3006ft 141kts
01-Feb-17 11:27 34.119813 -118.113519 113 3012ft 142kts
01-Feb-17 11:28 34.103510 -118.070557 113 3018ft 143kts
01-Feb-17 11:29 34.083606 -118.030600 152 3021ft 143kts
01-Feb-17 11:30 34.046922 -118.011610 158 3015ft 144kts
01-Feb-17 11:31 34.009733 -117.993977 158 2993ft 145kts
01-Feb-17 11:32 33.970359 -117.975365 158 2404ft 154kts
01-Feb-17 11:33 33.937643 -117.959913 158 1733ft 150kts
01-Feb-17 11:34 33.902089 -117.943186 158 1465ft 114kts
01-Feb-17 11:35 33.879523 -117.939781 251 734ft 86kts
01-Feb-17 11:36 33.874821 -117.965973 256 270ft 78kts
01-Feb-17 11:37 33.871664 -117.979337 164 91ft 0kts
01-Feb-17 11:38 33.871664 -117.979337 164 91ft 0kts
01-Feb-17 11:39 33.871124 -117.979169 152 91ft 7kts

Navigation Log

Ident Type
Flight plan parsing failed, navigation log unavailable